createdAt,value
2019-04-27T00:01:35.956Z,65.32
2019-04-27T00:04:39.861Z,65.53
2019-04-27T00:07:22.489Z,65.70
2019-04-27T00:09:59.769Z,66.05
2019-04-27T00:12:29.677Z,65.85
2019-04-27T00:14:59.291Z,66.08
2019-04-27T00:17:56.398Z,65.68
2019-04-27T00:20:36.757Z,65.44
2019-04-27T00:23:09.275Z,65.12
2019-04-27T00:25:38.812Z,64.87
2019-04-27T00:28:08.402Z,64.76
2019-04-27T00:30:38.916Z,64.97
2019-04-27T00:33:08.444Z,64.97
2019-04-27T00:35:47.374Z,65.47
2019-04-27T00:38:25.097Z,65.37
2019-04-27T00:40:58.657Z,65.20
2019-04-27T00:43:28.221Z,65.18
2019-04-27T00:45:57.859Z,64.82
2019-04-27T00:48:27.455Z,64.95
2019-04-27T00:50:57.021Z,64.92
2019-04-27T00:53:27.512Z,65.30
2019-04-27T00:56:14.732Z,65.38
2019-04-27T00:59:06.157Z,65.74
2019-04-27T01:01:43.646Z,65.48
2019-04-27T01:04:20.612Z,65.69
2019-04-27T01:06:50.123Z,65.36
2019-04-27T01:09:20.019Z,65.36
2019-04-27T01:11:49.538Z,65.51
2019-04-27T01:14:19.068Z,65.24
2019-04-27T01:16:49.266Z,65.41
2019-04-27T01:19:19.890Z,65.37
2019-04-27T01:21:49.727Z,65.39
2019-04-27T01:24:19.364Z,65.20
2019-04-27T01:27:08.793Z,65.08
2019-04-27T01:29:39.286Z,65.58
2019-04-27T01:32:11.746Z,65.62
2019-04-27T01:34:41.302Z,65.95
2019-04-27T01:37:10.841Z,66.26
2019-04-27T01:39:40.381Z,66.45
2019-04-27T01:42:10.628Z,66.54
2019-04-27T01:44:41.172Z,66.69
2019-04-27T01:47:10.683Z,67.03
2019-04-27T01:49:40.209Z,66.99
2019-04-27T01:52:09.802Z,66.95
2019-04-27T01:57:22.071Z,66.62
2019-04-27T01:59:51.590Z,66.23
2019-04-27T02:02:31.687Z,65.75
2019-04-27T02:05:19.150Z,65.78
2019-04-27T02:07:49.106Z,65.86
2019-04-27T02:10:19.291Z,66.44
2019-04-27T02:12:49.048Z,66.61
2019-04-27T02:15:19.183Z,66.79
2019-04-27T02:17:50.918Z,66.96
2019-04-27T02:20:20.069Z,66.82
2019-04-27T02:22:50.791Z,66.14
2019-04-27T02:25:21.100Z,66.25
2019-04-27T02:27:56.745Z,66.18
2019-04-27T02:30:57.241Z,65.76
2019-04-27T02:33:49.861Z,65.76
2019-04-27T02:36:20.252Z,66.30
2019-04-27T02:38:49.839Z,65.85
2019-04-27T02:41:19.986Z,65.46
2019-04-27T02:43:55.429Z,65.26
2019-04-27T02:46:25.046Z,65.42
2019-04-27T02:49:00.462Z,65.23
2019-04-27T02:51:49.553Z,65.03
2019-04-27T02:54:20.389Z,65.19
2019-04-27T02:56:52.668Z,65.61
2019-04-27T02:59:21.386Z,65.73
2019-04-27T03:02:00.855Z,65.47
2019-04-27T03:04:30.486Z,65.06
2019-04-27T03:07:00.371Z,64.76
2019-04-27T03:09:31.015Z,64.59
2019-04-27T03:12:01.914Z,63.93
2019-04-27T03:14:50.616Z,64.12
2019-04-27T03:17:30.798Z,64.26
2019-04-27T03:20:17.250Z,64.29
2019-04-27T03:22:55.181Z,64.40
2019-04-27T03:25:32.725Z,64.26
2019-04-27T03:28:10.683Z,64.15
2019-04-27T03:30:42.292Z,64.09
2019-04-27T03:33:12.401Z,63.73
2019-04-27T03:35:43.617Z,63.78
2019-04-27T03:38:13.520Z,63.68
2019-04-27T03:40:43.058Z,63.47
2019-04-27T03:43:19.746Z,63.16
2019-04-27T03:45:51.799Z,63.94
2019-04-27T03:48:20.511Z,63.95
2019-04-27T03:51:00.184Z,63.91
2019-04-27T03:53:34.973Z,63.89
2019-04-27T03:56:19.881Z,63.77
2019-04-27T03:58:52.859Z,63.77
2019-04-27T04:01:22.375Z,63.79
2019-04-27T04:03:51.987Z,64.03
2019-04-27T04:06:21.605Z,64.25
2019-04-27T04:08:55.000Z,64.39
2019-04-27T04:11:35.149Z,64.37
2019-04-27T04:14:09.954Z,64.35
2019-04-27T04:16:52.335Z,64.89
2019-04-27T04:19:21.857Z,64.89
2019-04-27T04:21:51.371Z,64.83
2019-04-27T04:24:20.975Z,64.66
2019-04-27T04:26:50.619Z,64.33
2019-04-27T04:29:20.468Z,64.00
2019-04-27T04:31:50.572Z,64.20
2019-04-27T04:34:20.308Z,64.85
2019-04-27T04:36:50.517Z,65.00
2019-04-27T04:39:20.196Z,65.16
2019-04-27T04:41:55.528Z,65.10
2019-04-27T04:44:40.008Z,65.21
2019-04-27T04:47:19.583Z,65.15
2019-04-27T04:49:59.713Z,65.46
2019-04-27T04:52:20.539Z,65.71
2019-04-27T04:54:50.069Z,65.96
2019-04-27T04:57:21.895Z,66.23
2019-04-27T04:59:51.507Z,66.57
2019-04-27T05:02:21.157Z,66.73
2019-04-27T05:04:50.676Z,66.78
2019-04-27T05:07:20.210Z,66.87
2019-04-27T05:09:49.766Z,67.14
2019-04-27T05:12:19.296Z,67.60
2019-04-27T05:14:49.039Z,67.67
2019-04-27T05:17:19.641Z,67.77
2019-04-27T05:19:50.127Z,67.61
2019-04-27T05:22:19.679Z,67.70
2019-04-27T05:25:00.408Z,67.72
2019-04-27T05:27:31.567Z,67.99
2019-04-27T05:30:01.168Z,67.48
2019-04-27T05:32:30.738Z,67.47
2019-04-27T05:35:00.289Z,67.46
2019-04-27T05:37:31.634Z,66.80
2019-04-27T05:40:01.072Z,66.85
2019-04-27T05:42:30.599Z,66.30
2019-04-27T05:45:09.347Z,65.71
2019-04-27T05:47:51.899Z,65.60
2019-04-27T05:50:22.088Z,64.57
2019-04-27T05:52:51.714Z,63.96
2019-04-27T05:55:21.247Z,63.04
2019-04-27T05:57:50.805Z,62.81
2019-04-27T06:00:21.668Z,62.08
2019-04-27T06:02:51.206Z,61.61
2019-04-27T06:05:22.760Z,61.29
2019-04-27T06:07:51.976Z,60.00
2019-04-27T06:10:21.488Z,59.55
2019-04-27T06:12:51.005Z,58.64
2019-04-27T06:15:20.723Z,57.70
2019-04-27T06:17:50.351Z,57.70
2019-04-27T06:20:19.886Z,57.36
2019-04-27T06:22:49.447Z,56.44
2019-04-27T06:25:21.533Z,56.26
2019-04-27T06:27:50.383Z,57.02
2019-04-27T06:30:19.983Z,56.66
2019-04-27T06:32:49.596Z,55.18
2019-04-27T06:35:19.167Z,54.22
2019-04-27T06:37:49.239Z,54.75
2019-04-27T06:40:19.081Z,54.74
2019-04-27T06:42:48.751Z,55.27
2019-04-27T06:45:19.670Z,55.08
2019-04-27T06:47:51.326Z,55.42
2019-04-27T06:50:21.505Z,55.50
2019-04-27T06:52:51.045Z,55.05
2019-04-27T06:55:20.639Z,55.49
2019-04-27T06:57:50.253Z,55.87
2019-04-27T07:00:21.433Z,57.31
2019-04-27T07:02:51.012Z,58.32
2019-04-27T07:05:20.596Z,58.03
2019-04-27T07:07:50.064Z,57.46
2019-04-27T07:10:19.608Z,58.54
2019-04-27T07:12:49.254Z,59.35
2019-04-27T07:15:20.519Z,59.02
2019-04-27T07:17:50.312Z,58.68
2019-04-27T07:20:19.927Z,59.46
2019-04-27T07:22:49.737Z,59.34
2019-04-27T07:25:19.424Z,60.56
2019-04-27T07:27:49.443Z,59.84
2019-04-27T07:30:19.230Z,59.91
2019-04-27T07:32:48.961Z,59.94
2019-04-27T07:35:19.690Z,59.87
2019-04-27T07:37:49.339Z,59.97
2019-04-27T07:40:18.923Z,59.11
2019-04-27T07:42:51.734Z,59.83
2019-04-27T07:45:29.509Z,58.69
2019-04-27T07:47:59.220Z,59.45
2019-04-27T07:50:29.084Z,58.35
2019-04-27T07:52:58.827Z,58.87
2019-04-27T07:55:28.826Z,58.78
2019-04-27T07:57:59.709Z,59.41
2019-04-27T08:00:29.412Z,59.25
2019-04-27T08:02:58.928Z,58.92
2019-04-27T08:05:29.155Z,60.52
2019-04-27T08:08:00.246Z,59.15
2019-04-27T08:10:29.917Z,59.02
2019-04-27T08:12:59.816Z,57.88
2019-04-27T08:15:30.757Z,59.30
2019-04-27T08:18:00.291Z,59.70
2019-04-27T08:20:29.805Z,59.43
2019-04-27T08:23:01.201Z,59.81
2019-04-27T08:25:30.849Z,59.02
2019-04-27T08:28:06.193Z,57.51
2019-04-27T08:30:41.902Z,57.36
2019-04-27T08:33:11.492Z,58.30
2019-04-27T08:35:41.030Z,58.28
2019-04-27T08:38:10.547Z,58.14
2019-04-27T08:40:40.096Z,58.03
2019-04-27T08:43:09.755Z,57.72
2019-04-27T08:45:39.410Z,57.63
2019-04-27T08:48:09.418Z,57.44
2019-04-27T08:50:41.778Z,56.14
2019-04-27T08:53:10.223Z,57.68
2019-04-27T08:55:40.829Z,54.80
2019-04-27T08:58:10.409Z,56.36
2019-04-27T09:00:40.122Z,56.99
2019-04-27T09:03:09.713Z,56.83
2019-04-27T09:05:40.244Z,55.65
2019-04-27T09:08:29.120Z,55.63
2019-04-27T09:11:15.500Z,55.25
2019-04-27T09:13:51.686Z,55.53
2019-04-27T09:16:57.889Z,54.30
2019-04-27T09:19:42.289Z,52.96
2019-04-27T09:22:15.982Z,51.85
2019-04-27T09:24:43.056Z,52.65
2019-04-27T09:27:12.687Z,53.23
2019-04-27T09:29:42.290Z,53.38
2019-04-27T09:32:11.832Z,52.05
2019-04-27T09:34:41.536Z,51.22
2019-04-27T09:37:11.073Z,51.53
2019-04-27T09:39:40.682Z,53.13
2019-04-27T09:42:10.260Z,52.43
2019-04-27T09:44:39.955Z,53.35
2019-04-27T09:47:09.479Z,52.22
2019-04-27T09:49:39.004Z,52.91
2019-04-27T09:52:08.550Z,52.06
2019-04-27T09:54:38.147Z,53.25
2019-04-27T09:57:07.723Z,53.01
2019-04-27T09:59:39.695Z,53.82
2019-04-27T10:02:09.919Z,54.71
2019-04-27T10:04:39.431Z,54.68
2019-04-27T10:07:09.004Z,55.94
2019-04-27T10:09:38.541Z,55.80
2019-04-27T10:12:09.694Z,56.47
2019-04-27T10:14:39.234Z,56.41
2019-04-27T10:17:09.768Z,55.84
2019-04-27T10:19:40.245Z,55.70
2019-04-27T10:22:09.827Z,56.23
2019-04-27T10:24:39.389Z,56.76
2019-04-27T10:27:08.921Z,57.67
2019-04-27T10:29:38.809Z,57.99
2019-04-27T10:32:08.379Z,59.22
2019-04-27T10:34:37.917Z,61.19
2019-04-27T10:37:07.911Z,63.87
2019-04-27T10:39:37.563Z,62.30
2019-04-27T10:42:07.176Z,62.94
2019-04-27T10:44:36.749Z,63.14
2019-04-27T10:47:06.802Z,63.10
2019-04-27T10:49:36.508Z,62.87
2019-04-27T10:52:06.130Z,63.78
2019-04-27T10:54:37.914Z,64.51
2019-04-27T10:57:07.540Z,63.18
2019-04-27T10:59:37.221Z,64.68
2019-04-27T11:02:06.894Z,64.58
2019-04-27T11:04:56.605Z,63.89
2019-04-27T11:07:30.482Z,63.12
2019-04-27T11:10:00.060Z,63.60
2019-04-27T11:12:29.866Z,64.16
2019-04-27T11:14:59.394Z,64.18
2019-04-27T11:17:29.008Z,64.06
2019-04-27T11:19:58.598Z,65.44
2019-04-27T11:22:28.126Z,65.55
2019-04-27T11:24:57.718Z,65.19
2019-04-27T11:27:27.338Z,65.04
2019-04-27T11:29:56.935Z,63.99
2019-04-27T11:32:26.530Z,65.02
2019-04-27T11:35:15.681Z,64.89
2019-04-27T11:37:45.711Z,64.16
2019-04-27T11:40:15.647Z,62.29
2019-04-27T11:42:45.187Z,61.64
2019-04-27T11:45:15.148Z,61.58
2019-04-27T11:47:44.785Z,61.66
2019-04-27T11:50:16.456Z,60.93
2019-04-27T11:52:45.967Z,60.88
2019-04-27T11:55:16.131Z,61.73
2019-04-27T11:57:47.011Z,63.24
2019-04-27T12:00:19.048Z,63.81
2019-04-27T12:02:48.640Z,64.54
2019-04-27T12:05:18.447Z,64.21
2019-04-27T12:07:48.023Z,64.59
2019-04-27T12:10:18.521Z,64.92
2019-04-27T12:12:48.038Z,65.28
2019-04-27T12:15:17.728Z,65.61
2019-04-27T12:17:47.268Z,65.72
2019-04-27T12:20:18.346Z,66.05
2019-04-27T12:22:47.879Z,65.81
2019-04-27T12:25:17.592Z,66.22
2019-04-27T12:28:12.411Z,66.14
2019-04-27T12:30:55.502Z,66.29
2019-04-27T12:33:27.767Z,66.51
2019-04-27T12:35:57.366Z,66.80
2019-04-27T12:38:28.364Z,66.66
2019-04-27T12:40:58.956Z,66.29
2019-04-27T12:43:28.490Z,66.54
2019-04-27T12:45:58.001Z,66.26
2019-04-27T12:48:29.005Z,67.02
2019-04-27T12:50:58.551Z,66.72
2019-04-27T12:53:50.062Z,65.87
2019-04-27T12:56:26.088Z,66.14
2019-04-27T12:59:00.043Z,66.09
2019-04-27T13:01:29.656Z,66.58
2019-04-27T13:03:59.400Z,66.24
2019-04-27T13:06:29.008Z,66.12
2019-04-27T13:08:58.561Z,67.15
2019-04-27T13:11:28.097Z,67.63
2019-04-27T13:13:57.813Z,68.07
2019-04-27T13:16:30.424Z,66.53
2019-04-27T13:18:59.783Z,67.85
2019-04-27T13:21:29.328Z,67.28
2019-04-27T13:24:04.141Z,67.17
2019-04-27T13:26:30.093Z,67.39
2019-04-27T13:28:59.708Z,67.10
2019-04-27T13:31:30.220Z,67.41
2019-04-27T13:34:02.618Z,67.02
2019-04-27T13:36:33.093Z,67.51
2019-04-27T13:39:03.727Z,67.91
2019-04-27T13:41:35.921Z,67.29
2019-04-27T13:44:06.604Z,67.55
2019-04-27T13:46:55.962Z,67.36
2019-04-27T13:50:00.789Z,67.36
2019-04-27T13:52:32.100Z,67.20
2019-04-27T13:55:01.722Z,67.74
2019-04-27T13:57:31.319Z,67.00
2019-04-27T14:00:01.314Z,66.84
2019-04-27T14:02:32.650Z,66.65
2019-04-27T14:05:02.556Z,66.92
2019-04-27T14:07:32.453Z,67.27
2019-04-27T14:10:02.967Z,67.53
2019-04-27T14:12:32.697Z,66.69
2019-04-27T14:15:02.196Z,64.43
2019-04-27T14:17:31.812Z,65.26
2019-04-27T14:20:01.378Z,66.53
2019-04-27T14:22:32.051Z,66.85
2019-04-27T14:25:01.659Z,67.48
2019-04-27T14:27:40.320Z,67.42
2019-04-27T14:30:09.105Z,67.30
2019-04-27T14:32:42.100Z,67.44
2019-04-27T14:35:10.739Z,67.34
2019-04-27T14:37:40.368Z,66.64
2019-04-27T14:40:11.001Z,66.47
2019-04-27T14:42:40.645Z,67.28
2019-04-27T14:45:10.552Z,67.50
2019-04-27T14:47:40.105Z,66.06
2019-04-27T14:50:09.900Z,66.38
2019-04-27T14:52:40.948Z,67.05
2019-04-27T14:55:10.734Z,65.75
2019-04-27T14:57:40.277Z,65.77
2019-04-27T15:00:12.128Z,65.74
2019-04-27T15:02:41.785Z,64.37
2019-04-27T15:05:14.322Z,64.51
2019-04-27T15:07:44.562Z,64.66
2019-04-27T15:10:16.216Z,64.53
2019-04-27T15:12:46.904Z,64.45
2019-04-27T15:15:16.839Z,65.37
2019-04-27T15:17:46.559Z,64.54
2019-04-27T15:20:27.256Z,64.85
2019-04-27T15:22:56.803Z,64.96
2019-04-27T15:25:25.723Z,64.88
2019-04-27T15:27:58.560Z,65.07
2019-04-27T15:31:05.623Z,65.43
2019-04-27T15:33:54.701Z,64.99
2019-04-27T15:36:37.857Z,66.01
2019-04-27T15:39:12.837Z,65.57
2019-04-27T15:41:48.553Z,65.46
2019-04-27T15:44:18.780Z,66.09
2019-04-27T15:46:48.570Z,65.11
2019-04-27T15:49:18.206Z,65.47
2019-04-27T15:51:50.596Z,65.61
2019-04-27T15:54:22.234Z,65.71
2019-04-27T15:56:50.645Z,66.38
2019-04-27T15:59:21.921Z,65.49
2019-04-27T16:01:51.558Z,65.71
2019-04-27T16:04:21.158Z,65.82
2019-04-27T16:06:50.832Z,65.96
2019-04-27T16:09:25.403Z,65.01
2019-04-27T16:11:58.410Z,63.98
2019-04-27T16:14:23.895Z,63.61
2019-04-27T16:16:53.676Z,63.75
2019-04-27T16:19:23.398Z,62.98
2019-04-27T16:21:54.310Z,61.55
2019-04-27T16:24:23.974Z,62.10
2019-04-27T16:26:55.994Z,61.76
2019-04-27T16:29:28.072Z,62.21
2019-04-27T16:31:58.263Z,63.53
2019-04-27T16:34:28.660Z,66.82
2019-04-27T16:36:58.930Z,62.23
2019-04-27T16:39:28.737Z,62.19
2019-04-27T16:41:58.793Z,62.57
2019-04-27T16:44:28.580Z,63.67
2019-04-27T16:46:59.209Z,63.17
2019-04-27T16:49:29.064Z,63.28
2019-04-27T16:51:59.080Z,62.94
2019-04-27T16:54:28.686Z,62.25
2019-04-27T16:57:03.293Z,62.90
2019-04-27T16:59:44.156Z,62.81
2019-04-27T17:02:01.668Z,62.75
2019-04-27T17:04:31.519Z,63.76
2019-04-27T17:07:01.198Z,64.36
2019-04-27T17:09:30.716Z,64.23
2019-04-27T17:12:00.356Z,65.01
2019-04-27T17:14:49.099Z,65.16
2019-04-27T17:17:32.114Z,65.56
2019-04-27T17:20:03.219Z,65.13
2019-04-27T17:22:32.778Z,64.75
2019-04-27T17:25:02.332Z,65.15
2019-04-27T17:27:40.789Z,64.55
2019-04-27T17:30:10.682Z,64.79
2019-04-27T17:32:48.847Z,64.72
2019-04-27T17:35:18.426Z,64.54
2019-04-27T17:37:48.877Z,63.57
2019-04-27T17:40:18.498Z,63.24
2019-04-27T17:42:48.247Z,63.62
2019-04-27T17:45:19.363Z,63.55
2019-04-27T17:47:49.157Z,63.27
2019-04-27T17:50:24.990Z,63.66
2019-04-27T17:52:55.010Z,63.27
2019-04-27T17:55:24.333Z,62.99
2019-04-27T17:57:52.705Z,63.05
2019-04-27T18:00:22.373Z,63.30
2019-04-27T18:02:51.945Z,63.23
2019-04-27T18:05:21.517Z,63.04
2019-04-27T18:07:52.503Z,62.58
2019-04-27T18:10:24.311Z,63.13
2019-04-27T18:12:53.462Z,62.45
2019-04-27T18:15:23.090Z,62.84
2019-04-27T18:17:54.631Z,62.42
2019-04-27T18:20:25.486Z,62.85
2019-04-27T18:23:01.310Z,62.74
2019-04-27T18:25:35.697Z,62.63
2019-04-27T18:28:15.147Z,62.86
2019-04-27T18:31:11.458Z,62.68
2019-04-27T18:33:42.553Z,62.95
2019-04-27T18:36:14.242Z,63.09
2019-04-27T18:38:43.552Z,63.29
2019-04-27T18:41:13.127Z,63.32
2019-04-27T18:43:50.585Z,63.42
2019-04-27T18:46:14.834Z,63.22
2019-04-27T18:49:04.287Z,62.99
2019-04-27T18:52:06.492Z,62.98
2019-04-27T18:54:38.363Z,63.00
2019-04-27T18:57:10.770Z,63.20
2019-04-27T18:59:38.828Z,63.21
2019-04-27T19:02:08.650Z,63.72
2019-04-27T19:04:38.248Z,64.13
2019-04-27T19:07:08.750Z,64.55
2019-04-27T19:09:38.334Z,65.21
2019-04-27T19:12:07.903Z,65.31
2019-04-27T19:14:37.532Z,65.86
2019-04-27T19:17:07.183Z,65.44
2019-04-27T19:19:36.761Z,65.35
2019-04-27T19:22:06.409Z,65.56
2019-04-27T19:24:36.034Z,65.59
2019-04-27T19:27:36.680Z,65.74
2019-04-27T19:30:19.777Z,65.70
2019-04-27T19:32:49.334Z,65.55
2019-04-27T19:35:19.974Z,66.13
2019-04-27T19:37:49.630Z,65.93
2019-04-27T19:40:19.249Z,66.25
2019-04-27T19:42:48.856Z,66.30
2019-04-27T19:45:19.288Z,66.25
2019-04-27T19:47:50.511Z,66.32
2019-04-27T19:50:20.038Z,66.82
2019-04-27T19:52:50.297Z,66.32
2019-04-27T19:55:19.895Z,66.15
2019-04-27T19:57:49.846Z,65.89
2019-04-27T20:00:48.402Z,65.88
2019-04-27T20:03:23.798Z,66.18
2019-04-27T20:05:53.345Z,66.03
2019-04-27T20:08:25.171Z,65.62
2019-04-27T20:10:54.740Z,65.30
2019-04-27T20:13:24.373Z,64.90
2019-04-27T20:15:53.973Z,64.62
2019-04-27T20:18:23.528Z,64.36
2019-04-27T20:20:53.118Z,64.63
2019-04-27T20:23:22.746Z,66.77
2019-04-27T20:25:52.268Z,63.68
2019-04-27T20:28:23.119Z,63.78
2019-04-27T20:30:52.728Z,63.54
2019-04-27T20:33:22.281Z,63.29
2019-04-27T20:35:51.856Z,63.58
2019-04-27T20:38:21.541Z,63.54
2019-04-27T20:40:52.820Z,63.77
2019-04-27T20:43:24.700Z,63.78
2019-04-27T20:45:53.612Z,63.80
2019-04-27T20:48:23.152Z,64.00
2019-04-27T20:50:52.676Z,63.69
2019-04-27T20:53:25.473Z,64.10
2019-04-27T20:55:54.987Z,64.71
2019-04-27T20:58:24.520Z,64.44
2019-04-27T21:00:54.097Z,65.62
2019-04-27T21:03:32.779Z,65.29
2019-04-27T21:06:08.315Z,65.20
2019-04-27T21:08:41.224Z,65.15
2019-04-27T21:11:11.867Z,64.99
2019-04-27T21:13:41.454Z,65.37
2019-04-27T21:16:12.539Z,65.29
2019-04-27T21:18:42.195Z,65.67
2019-04-27T21:21:11.944Z,65.49
2019-04-27T21:23:41.651Z,65.58
2019-04-27T21:26:11.187Z,65.88
2019-04-27T21:28:42.999Z,65.47
2019-04-27T21:31:12.761Z,65.51
2019-04-27T21:33:42.454Z,65.41
2019-04-27T21:36:11.973Z,65.69
2019-04-27T21:38:43.020Z,65.38
2019-04-27T21:41:12.596Z,65.12
2019-04-27T21:43:43.848Z,64.63
2019-04-27T21:46:13.463Z,64.61
2019-04-27T21:48:43.049Z,64.64
2019-04-27T21:51:12.650Z,64.67
2019-04-27T21:54:04.090Z,64.90
2019-04-27T21:56:33.690Z,64.95
2019-04-27T21:59:03.318Z,65.00
2019-04-27T22:01:34.207Z,64.74
2019-04-27T22:04:05.511Z,64.63
2019-04-27T22:06:35.061Z,64.35
2019-04-27T22:09:08.432Z,64.54
2019-04-27T22:11:40.902Z,64.31
2019-04-27T22:14:11.689Z,63.91
2019-04-27T22:16:41.754Z,63.29
2019-04-27T22:19:12.044Z,63.52
2019-04-27T22:21:42.078Z,63.84
2019-04-27T22:24:30.962Z,64.10
2019-04-27T22:27:00.486Z,64.72
2019-04-27T22:29:31.951Z,64.59
2019-04-27T22:32:01.733Z,65.19
2019-04-27T22:34:31.379Z,65.26
2019-04-27T22:37:02.611Z,65.49
2019-04-27T22:39:52.539Z,65.40
2019-04-27T22:42:51.860Z,65.46
2019-04-27T22:45:25.089Z,65.63
2019-04-27T22:47:54.780Z,65.52
2019-04-27T22:50:24.419Z,65.38
2019-04-27T22:52:53.954Z,65.27
2019-04-27T22:55:23.499Z,65.30
2019-04-27T22:57:58.273Z,65.69
2019-04-27T23:00:45.761Z,65.56
2019-04-27T23:03:21.236Z,64.83
2019-04-27T23:05:51.284Z,64.95
2019-04-27T23:08:22.554Z,64.78
2019-04-27T23:10:52.401Z,64.72
2019-04-27T23:13:22.040Z,65.00
2019-04-27T23:15:53.790Z,65.19
2019-04-27T23:18:23.354Z,65.22
2019-04-27T23:20:52.904Z,65.06
2019-04-27T23:23:22.404Z,65.04
2019-04-27T23:25:51.981Z,65.51
2019-04-27T23:28:21.622Z,65.08
2019-04-27T23:31:05.768Z,65.03
2019-04-27T23:33:35.870Z,65.07
2019-04-27T23:36:05.409Z,65.62
2019-04-27T23:38:34.935Z,65.51
2019-04-27T23:41:04.575Z,65.51
2019-04-27T23:43:34.128Z,65.29
2019-04-27T23:46:03.707Z,65.20
2019-04-27T23:48:33.357Z,65.41
2019-04-27T23:51:15.641Z,65.35
2019-04-27T23:53:45.162Z,65.68
2019-04-27T23:56:14.834Z,65.53
2019-04-27T23:58:44.420Z,65.58
